sensor_id;sensor_type;location;lat;lon;timestamp;P1;durP1;ratioP1;P2;durP2;ratioP2
938;SDS011;456;53.584;9.968;2023-11-21T00:00:54;2.30;;;2.10;;
938;SDS011;456;53.584;9.968;2023-11-21T00:03:21;3.03;;;2.40;;
938;SDS011;456;53.584;9.968;2023-11-21T00:05:48;2.50;;;2.10;;
938;SDS011;456;53.584;9.968;2023-11-21T00:08:14;2.43;;;2.23;;
938;SDS011;456;53.584;9.968;2023-11-21T00:10:39;2.93;;;2.30;;
938;SDS011;456;53.584;9.968;2023-11-21T00:13:05;4.53;;;2.53;;
938;SDS011;456;53.584;9.968;2023-11-21T00:15:30;2.03;;;1.80;;
938;SDS011;456;53.584;9.968;2023-11-21T00:17:56;2.40;;;2.20;;
938;SDS011;456;53.584;9.968;2023-11-21T00:20:22;2.13;;;1.93;;
938;SDS011;456;53.584;9.968;2023-11-21T00:22:47;2.00;;;1.60;;
938;SDS011;456;53.584;9.968;2023-11-21T00:25:13;1.93;;;1.50;;
938;SDS011;456;53.584;9.968;2023-11-21T00:27:40;3.17;;;2.10;;
938;SDS011;456;53.584;9.968;2023-11-21T00:30:06;2.87;;;2.10;;
938;SDS011;456;53.584;9.968;2023-11-21T00:32:33;3.13;;;2.20;;
938;SDS011;456;53.584;9.968;2023-11-21T00:35:00;2.27;;;1.87;;
938;SDS011;456;53.584;9.968;2023-11-21T00:37:26;2.30;;;2.10;;
938;SDS011;456;53.584;9.968;2023-11-21T00:39:52;2.50;;;1.33;;
938;SDS011;456;53.584;9.968;2023-11-21T00:42:17;2.30;;;2.00;;
938;SDS011;456;53.584;9.968;2023-11-21T00:44:43;2.47;;;1.67;;
938;SDS011;456;53.584;9.968;2023-11-21T00:47:08;1.93;;;1.50;;
938;SDS011;456;53.584;9.968;2023-11-21T00:49:34;2.43;;;1.80;;
938;SDS011;456;53.584;9.968;2023-11-21T00:51:59;1.90;;;1.80;;
938;SDS011;456;53.584;9.968;2023-11-21T00:54:26;3.63;;;2.00;;
938;SDS011;456;53.584;9.968;2023-11-21T00:56:52;2.20;;;2.00;;
938;SDS011;456;53.584;9.968;2023-11-21T00:59:17;2.77;;;1.90;;
938;SDS011;456;53.584;9.968;2023-11-21T01:01:43;2.33;;;1.73;;
938;SDS011;456;53.584;9.968;2023-11-21T01:04:09;1.60;;;1.50;;
938;SDS011;456;53.584;9.968;2023-11-21T01:06:35;1.90;;;1.80;;
938;SDS011;456;53.584;9.968;2023-11-21T01:09:00;1.90;;;1.80;;
938;SDS011;456;53.584;9.968;2023-11-21T01:11:26;1.67;;;1.50;;
938;SDS011;456;53.584;9.968;2023-11-21T01:13:52;1.97;;;1.57;;
938;SDS011;456;53.584;9.968;2023-11-21T01:16:18;1.47;;;1.37;;
938;SDS011;456;53.584;9.968;2023-11-21T01:18:44;2.10;;;1.90;;
938;SDS011;456;53.584;9.968;2023-11-21T01:21:09;1.80;;;1.57;;
938;SDS011;456;53.584;9.968;2023-11-21T01:23:35;3.00;;;1.60;;
938;SDS011;456;53.584;9.968;2023-11-21T01:26:00;2.10;;;1.90;;
938;SDS011;456;53.584;9.968;2023-11-21T01:28:26;1.77;;;1.50;;
938;SDS011;456;53.584;9.968;2023-11-21T01:30:52;2.70;;;1.83;;
938;SDS011;456;53.584;9.968;2023-11-21T01:33:21;2.97;;;1.90;;
938;SDS011;456;53.584;9.968;2023-11-21T01:35:47;1.70;;;1.57;;
938;SDS011;456;53.584;9.968;2023-11-21T01:38:13;1.90;;;1.77;;
938;SDS011;456;53.584;9.968;2023-11-21T01:40:40;2.10;;;1.90;;
938;SDS011;456;53.584;9.968;2023-11-21T01:43:05;2.17;;;1.80;;
938;SDS011;456;53.584;9.968;2023-11-21T01:45:31;1.77;;;1.67;;
938;SDS011;456;53.584;9.968;2023-11-21T01:47:58;2.27;;;1.97;;
938;SDS011;456;53.584;9.968;2023-11-21T01:50:25;1.90;;;1.67;;
938;SDS011;456;53.584;9.968;2023-11-21T01:52:51;1.97;;;1.77;;
938;SDS011;456;53.584;9.968;2023-11-21T01:55:17;4.00;;;1.80;;
938;SDS011;456;53.584;9.968;2023-11-21T01:57:44;2.53;;;2.03;;
938;SDS011;456;53.584;9.968;2023-11-21T02:00:11;2.23;;;2.03;;
938;SDS011;456;53.584;9.968;2023-11-21T02:02:48;1.93;;;1.73;;
938;SDS011;456;53.584;9.968;2023-11-21T02:05:17;2.30;;;2.10;;
938;SDS011;456;53.584;9.968;2023-11-21T02:07:43;2.37;;;2.17;;
938;SDS011;456;53.584;9.968;2023-11-21T02:10:10;1.80;;;1.70;;
938;SDS011;456;53.584;9.968;2023-11-21T02:12:39;2.23;;;1.97;;
938;SDS011;456;53.584;9.968;2023-11-21T02:15:05;2.30;;;2.10;;
938;SDS011;456;53.584;9.968;2023-11-21T02:17:39;2.17;;;1.90;;
938;SDS011;456;53.584;9.968;2023-11-21T02:20:28;2.27;;;2.07;;
938;SDS011;456;53.584;9.968;2023-11-21T02:22:55;2.30;;;2.10;;
938;SDS011;456;53.584;9.968;2023-11-21T02:25:27;2.20;;;2.00;;
938;SDS011;456;53.584;9.968;2023-11-21T02:27:55;2.57;;;2.33;;
938;SDS011;456;53.584;9.968;2023-11-21T02:30:24;2.50;;;2.30;;
938;SDS011;456;53.584;9.968;2023-11-21T02:32:50;3.53;;;2.40;;
938;SDS011;456;53.584;9.968;2023-11-21T02:35:19;2.30;;;2.10;;
938;SDS011;456;53.584;9.968;2023-11-21T02:37:46;2.70;;;2.50;;
938;SDS011;456;53.584;9.968;2023-11-21T02:40:12;2.60;;;2.40;;
938;SDS011;456;53.584;9.968;2023-11-21T02:42:41;2.47;;;2.17;;
938;SDS011;456;53.584;9.968;2023-11-21T02:45:07;2.60;;;2.40;;
938;SDS011;456;53.584;9.968;2023-11-21T02:47:33;2.80;;;2.60;;
938;SDS011;456;53.584;9.968;2023-11-21T02:49:59;2.60;;;2.40;;
938;SDS011;456;53.584;9.968;2023-11-21T02:52:24;3.20;;;2.80;;
938;SDS011;456;53.584;9.968;2023-11-21T02:54:50;2.53;;;2.33;;
938;SDS011;456;53.584;9.968;2023-11-21T02:57:16;3.33;;;2.50;;
938;SDS011;456;53.584;9.968;2023-11-21T02:59:42;3.30;;;2.80;;
938;SDS011;456;53.584;9.968;2023-11-21T03:02:07;3.40;;;3.10;;
938;SDS011;456;53.584;9.968;2023-11-21T03:04:33;3.23;;;2.57;;
938;SDS011;456;53.584;9.968;2023-11-21T03:06:59;3.30;;;2.30;;
938;SDS011;456;53.584;9.968;2023-11-21T03:09:25;2.93;;;2.73;;
938;SDS011;456;53.584;9.968;2023-11-21T03:11:51;3.63;;;2.63;;
938;SDS011;456;53.584;9.968;2023-11-21T03:14:17;4.13;;;3.00;;
938;SDS011;456;53.584;9.968;2023-11-21T03:16:43;2.90;;;2.70;;
938;SDS011;456;53.584;9.968;2023-11-21T03:19:10;4.13;;;2.97;;
938;SDS011;456;53.584;9.968;2023-11-21T03:21:36;3.50;;;2.80;;
938;SDS011;456;53.584;9.968;2023-11-21T03:24:02;3.50;;;2.87;;
938;SDS011;456;53.584;9.968;2023-11-21T03:26:27;3.57;;;3.10;;
938;SDS011;456;53.584;9.968;2023-11-21T03:28:54;3.17;;;2.80;;
938;SDS011;456;53.584;9.968;2023-11-21T03:31:20;2.90;;;2.70;;
938;SDS011;456;53.584;9.968;2023-11-21T03:33:46;3.33;;;3.10;;
938;SDS011;456;53.584;9.968;2023-11-21T03:36:12;3.10;;;2.80;;
938;SDS011;456;53.584;9.968;2023-11-21T03:38:39;3.37;;;3.07;;
938;SDS011;456;53.584;9.968;2023-11-21T03:41:05;3.20;;;2.90;;
938;SDS011;456;53.584;9.968;2023-11-21T03:43:31;3.57;;;3.03;;
938;SDS011;456;53.584;9.968;2023-11-21T03:45:57;4.17;;;3.33;;
938;SDS011;456;53.584;9.968;2023-11-21T03:48:22;4.50;;;3.13;;
938;SDS011;456;53.584;9.968;2023-11-21T03:50:48;2.97;;;2.67;;
938;SDS011;456;53.584;9.968;2023-11-21T03:53:13;4.53;;;3.37;;
938;SDS011;456;53.584;9.968;2023-11-21T03:55:39;3.33;;;2.90;;
938;SDS011;456;53.584;9.968;2023-11-21T03:58:05;3.20;;;2.90;;
938;SDS011;456;53.584;9.968;2023-11-21T04:00:30;3.60;;;3.07;;
938;SDS011;456;53.584;9.968;2023-11-21T04:02:56;3.00;;;2.57;;
938;SDS011;456;53.584;9.968;2023-11-21T04:05:22;3.63;;;2.97;;
938;SDS011;456;53.584;9.968;2023-11-21T04:07:51;3.97;;;3.40;;
938;SDS011;456;53.584;9.968;2023-11-21T04:10:17;3.37;;;3.07;;
938;SDS011;456;53.584;9.968;2023-11-21T04:12:43;2.80;;;2.60;;
938;SDS011;456;53.584;9.968;2023-11-21T04:15:09;3.20;;;2.90;;
938;SDS011;456;53.584;9.968;2023-11-21T04:17:35;3.30;;;3.00;;
938;SDS011;456;53.584;9.968;2023-11-21T04:20:02;3.30;;;3.00;;
938;SDS011;456;53.584;9.968;2023-11-21T04:22:33;3.23;;;2.93;;
938;SDS011;456;53.584;9.968;2023-11-21T04:24:58;3.00;;;2.70;;
938;SDS011;456;53.584;9.968;2023-11-21T04:27:24;2.47;;;2.27;;
938;SDS011;456;53.584;9.968;2023-11-21T04:29:50;2.87;;;2.57;;
938;SDS011;456;53.584;9.968;2023-11-21T04:32:15;3.47;;;3.17;;
938;SDS011;456;53.584;9.968;2023-11-21T04:34:41;3.57;;;3.10;;
938;SDS011;456;53.584;9.968;2023-11-21T04:37:06;4.70;;;3.00;;
938;SDS011;456;53.584;9.968;2023-11-21T04:39:32;3.10;;;2.80;;
938;SDS011;456;53.584;9.968;2023-11-21T04:41:57;3.00;;;2.70;;
938;SDS011;456;53.584;9.968;2023-11-21T04:44:23;2.43;;;2.20;;
938;SDS011;456;53.584;9.968;2023-11-21T04:46:48;3.03;;;2.40;;
938;SDS011;456;53.584;9.968;2023-11-21T04:49:14;2.47;;;2.27;;
938;SDS011;456;53.584;9.968;2023-11-21T04:51:40;2.93;;;2.73;;
938;SDS011;456;53.584;9.968;2023-11-21T04:54:05;2.70;;;2.50;;
938;SDS011;456;53.584;9.968;2023-11-21T04:56:31;2.90;;;2.70;;
938;SDS011;456;53.584;9.968;2023-11-21T04:58:56;3.30;;;2.73;;
938;SDS011;456;53.584;9.968;2023-11-21T05:01:22;2.97;;;2.60;;
938;SDS011;456;53.584;9.968;2023-11-21T05:03:48;3.03;;;2.73;;
938;SDS011;456;53.584;9.968;2023-11-21T05:06:14;3.47;;;3.17;;
938;SDS011;456;53.584;9.968;2023-11-21T05:08:40;3.10;;;2.80;;
938;SDS011;456;53.584;9.968;2023-11-21T05:11:05;3.47;;;3.17;;
938;SDS011;456;53.584;9.968;2023-11-21T05:13:35;3.67;;;3.20;;
938;SDS011;456;53.584;9.968;2023-11-21T05:16:01;3.47;;;3.17;;
938;SDS011;456;53.584;9.968;2023-11-21T05:18:31;2.60;;;2.40;;
938;SDS011;456;53.584;9.968;2023-11-21T05:20:56;3.63;;;2.90;;
938;SDS011;456;53.584;9.968;2023-11-21T05:23:22;3.47;;;2.93;;
938;SDS011;456;53.584;9.968;2023-11-21T05:25:48;3.40;;;2.80;;
938;SDS011;456;53.584;9.968;2023-11-21T05:28:14;3.03;;;2.73;;
938;SDS011;456;53.584;9.968;2023-11-21T05:30:39;3.43;;;3.13;;
938;SDS011;456;53.584;9.968;2023-11-21T05:33:05;3.10;;;2.80;;
938;SDS011;456;53.584;9.968;2023-11-21T05:35:31;2.80;;;2.50;;
938;SDS011;456;53.584;9.968;2023-11-21T05:37:56;3.20;;;2.90;;
938;SDS011;456;53.584;9.968;2023-11-21T05:40:22;3.50;;;3.20;;
938;SDS011;456;53.584;9.968;2023-11-21T05:42:48;2.90;;;2.43;;
938;SDS011;456;53.584;9.968;2023-11-21T05:45:13;2.80;;;2.60;;
938;SDS011;456;53.584;9.968;2023-11-21T05:47:41;3.10;;;2.70;;
938;SDS011;456;53.584;9.968;2023-11-21T05:50:09;3.27;;;2.97;;
938;SDS011;456;53.584;9.968;2023-11-21T05:52:39;3.40;;;3.10;;
938;SDS011;456;53.584;9.968;2023-11-21T05:55:05;2.70;;;2.50;;
938;SDS011;456;53.584;9.968;2023-11-21T05:57:35;3.43;;;2.87;;
938;SDS011;456;53.584;9.968;2023-11-21T06:00:04;2.87;;;2.47;;
938;SDS011;456;53.584;9.968;2023-11-21T06:02:51;3.30;;;3.00;;
938;SDS011;456;53.584;9.968;2023-11-21T06:05:21;3.00;;;2.63;;
938;SDS011;456;53.584;9.968;2023-11-21T06:07:48;2.67;;;2.47;;
938;SDS011;456;53.584;9.968;2023-11-21T06:10:14;3.50;;;3.10;;
938;SDS011;456;53.584;9.968;2023-11-21T06:12:42;2.97;;;2.77;;
938;SDS011;456;53.584;9.968;2023-11-21T06:15:08;3.50;;;3.20;;
938;SDS011;456;53.584;9.968;2023-11-21T06:17:38;3.13;;;2.70;;
938;SDS011;456;53.584;9.968;2023-11-21T06:20:04;2.80;;;2.60;;
938;SDS011;456;53.584;9.968;2023-11-21T06:22:45;3.20;;;2.90;;
938;SDS011;456;53.584;9.968;2023-11-21T06:25:13;2.87;;;2.63;;
938;SDS011;456;53.584;9.968;2023-11-21T06:27:42;2.90;;;2.63;;
938;SDS011;456;53.584;9.968;2023-11-21T06:30:09;3.23;;;2.90;;
938;SDS011;456;53.584;9.968;2023-11-21T06:32:37;2.70;;;2.50;;
938;SDS011;456;53.584;9.968;2023-11-21T06:35:03;2.73;;;2.53;;
938;SDS011;456;53.584;9.968;2023-11-21T06:37:30;2.90;;;2.70;;
938;SDS011;456;53.584;9.968;2023-11-21T06:39:56;2.70;;;2.47;;
938;SDS011;456;53.584;9.968;2023-11-21T06:42:23;3.20;;;2.90;;
938;SDS011;456;53.584;9.968;2023-11-21T06:44:49;2.57;;;2.37;;
938;SDS011;456;53.584;9.968;2023-11-21T06:47:35;2.93;;;2.60;;
938;SDS011;456;53.584;9.968;2023-11-21T06:50:01;3.60;;;2.53;;
938;SDS011;456;53.584;9.968;2023-11-21T06:52:27;2.80;;;2.60;;
938;SDS011;456;53.584;9.968;2023-11-21T06:54:52;3.77;;;2.60;;
938;SDS011;456;53.584;9.968;2023-11-21T06:57:18;4.10;;;3.43;;
938;SDS011;456;53.584;9.968;2023-11-21T06:59:44;4.77;;;3.00;;
938;SDS011;456;53.584;9.968;2023-11-21T07:02:09;2.93;;;2.63;;
938;SDS011;456;53.584;9.968;2023-11-21T07:04:35;3.70;;;3.10;;
938;SDS011;456;53.584;9.968;2023-11-21T07:07:04;3.20;;;2.67;;
938;SDS011;456;53.584;9.968;2023-11-21T07:09:32;3.20;;;2.90;;
938;SDS011;456;53.584;9.968;2023-11-21T07:11:58;3.37;;;3.07;;
938;SDS011;456;53.584;9.968;2023-11-21T07:14:23;2.70;;;2.50;;
938;SDS011;456;53.584;9.968;2023-11-21T07:16:49;3.03;;;2.73;;
938;SDS011;456;53.584;9.968;2023-11-21T07:19:14;3.27;;;3.03;;
938;SDS011;456;53.584;9.968;2023-11-21T07:21:40;3.40;;;2.87;;
938;SDS011;456;53.584;9.968;2023-11-21T07:24:06;4.07;;;3.33;;
938;SDS011;456;53.584;9.968;2023-11-21T07:26:33;3.00;;;2.80;;
938;SDS011;456;53.584;9.968;2023-11-21T07:28:59;5.50;;;3.27;;
938;SDS011;456;53.584;9.968;2023-11-21T07:31:26;3.23;;;2.80;;
938;SDS011;456;53.584;9.968;2023-11-21T07:33:52;3.73;;;3.10;;
938;SDS011;456;53.584;9.968;2023-11-21T07:36:18;3.33;;;2.93;;
938;SDS011;456;53.584;9.968;2023-11-21T07:38:45;3.83;;;3.07;;
938;SDS011;456;53.584;9.968;2023-11-21T07:41:11;3.00;;;2.70;;
938;SDS011;456;53.584;9.968;2023-11-21T07:43:40;3.43;;;3.10;;
938;SDS011;456;53.584;9.968;2023-11-21T07:46:06;3.03;;;2.73;;
938;SDS011;456;53.584;9.968;2023-11-21T07:48:33;3.30;;;2.90;;
938;SDS011;456;53.584;9.968;2023-11-21T07:51:00;3.57;;;3.13;;
938;SDS011;456;53.584;9.968;2023-11-21T07:53:27;3.30;;;3.00;;
938;SDS011;456;53.584;9.968;2023-11-21T07:55:56;3.20;;;2.90;;
938;SDS011;456;53.584;9.968;2023-11-21T07:58:22;3.87;;;3.23;;
938;SDS011;456;53.584;9.968;2023-11-21T08:00:48;2.97;;;2.67;;
938;SDS011;456;53.584;9.968;2023-11-21T08:03:14;3.73;;;3.43;;
938;SDS011;456;53.584;9.968;2023-11-21T08:05:40;3.60;;;3.30;;
938;SDS011;456;53.584;9.968;2023-11-21T08:08:06;3.50;;;3.20;;
938;SDS011;456;53.584;9.968;2023-11-21T08:10:32;3.73;;;3.43;;
938;SDS011;456;53.584;9.968;2023-11-21T08:12:58;3.70;;;3.30;;
938;SDS011;456;53.584;9.968;2023-11-21T08:15:24;4.77;;;4.07;;
938;SDS011;456;53.584;9.968;2023-11-21T08:17:50;5.07;;;4.40;;
938;SDS011;456;53.584;9.968;2023-11-21T08:20:16;6.13;;;5.00;;
938;SDS011;456;53.584;9.968;2023-11-21T08:22:43;7.03;;;4.80;;
938;SDS011;456;53.584;9.968;2023-11-21T08:25:09;5.20;;;4.70;;
938;SDS011;456;53.584;9.968;2023-11-21T08:27:35;5.33;;;4.77;;
938;SDS011;456;53.584;9.968;2023-11-21T08:30:01;6.70;;;5.60;;
938;SDS011;456;53.584;9.968;2023-11-21T08:32:28;8.03;;;4.77;;
938;SDS011;456;53.584;9.968;2023-11-21T08:34:55;6.13;;;5.30;;
938;SDS011;456;53.584;9.968;2023-11-21T08:37:21;5.63;;;5.10;;
938;SDS011;456;53.584;9.968;2023-11-21T08:39:47;5.90;;;5.30;;
938;SDS011;456;53.584;9.968;2023-11-21T08:42:13;8.90;;;5.20;;
938;SDS011;456;53.584;9.968;2023-11-21T08:44:40;9.10;;;6.03;;
938;SDS011;456;53.584;9.968;2023-11-21T08:47:06;8.10;;;5.60;;
938;SDS011;456;53.584;9.968;2023-11-21T08:49:32;11.53;;;5.77;;
938;SDS011;456;53.584;9.968;2023-11-21T08:51:58;7.00;;;5.10;;
938;SDS011;456;53.584;9.968;2023-11-21T08:54:25;6.83;;;5.10;;
938;SDS011;456;53.584;9.968;2023-11-21T08:56:54;6.37;;;5.20;;
938;SDS011;456;53.584;9.968;2023-11-21T08:59:20;5.47;;;4.77;;
938;SDS011;456;53.584;9.968;2023-11-21T09:01:46;5.70;;;5.10;;
938;SDS011;456;53.584;9.968;2023-11-21T09:04:12;6.93;;;5.07;;
938;SDS011;456;53.584;9.968;2023-11-21T09:06:38;5.53;;;5.03;;
938;SDS011;456;53.584;9.968;2023-11-21T09:09:04;7.27;;;5.07;;
938;SDS011;456;53.584;9.968;2023-11-21T09:11:31;5.47;;;4.97;;
938;SDS011;456;53.584;9.968;2023-11-21T09:13:58;5.30;;;4.80;;
938;SDS011;456;53.584;9.968;2023-11-21T09:16:24;5.87;;;5.37;;
938;SDS011;456;53.584;9.968;2023-11-21T09:18:50;5.97;;;5.27;;
938;SDS011;456;53.584;9.968;2023-11-21T09:21:15;7.10;;;5.60;;
938;SDS011;456;53.584;9.968;2023-11-21T09:23:42;5.43;;;5.00;;
938;SDS011;456;53.584;9.968;2023-11-21T09:26:11;6.03;;;4.73;;
938;SDS011;456;53.584;9.968;2023-11-21T09:28:37;5.10;;;4.60;;
938;SDS011;456;53.584;9.968;2023-11-21T09:31:03;7.33;;;5.27;;
938;SDS011;456;53.584;9.968;2023-11-21T09:33:29;6.80;;;5.03;;
938;SDS011;456;53.584;9.968;2023-11-21T09:35:56;5.13;;;4.63;;
938;SDS011;456;53.584;9.968;2023-11-21T09:38:22;6.87;;;5.00;;
938;SDS011;456;53.584;9.968;2023-11-21T09:40:48;5.20;;;4.80;;
938;SDS011;456;53.584;9.968;2023-11-21T09:43:18;4.90;;;4.50;;
938;SDS011;456;53.584;9.968;2023-11-21T09:45:47;5.20;;;4.67;;
938;SDS011;456;53.584;9.968;2023-11-21T09:48:20;5.17;;;4.77;;
938;SDS011;456;53.584;9.968;2023-11-21T09:50:47;4.27;;;3.87;;
938;SDS011;456;53.584;9.968;2023-11-21T09:53:19;7.30;;;5.00;;
938;SDS011;456;53.584;9.968;2023-11-21T09:55:47;5.13;;;4.63;;
938;SDS011;456;53.584;9.968;2023-11-21T09:58:16;5.53;;;4.93;;
938;SDS011;456;53.584;9.968;2023-11-21T10:00:43;4.33;;;3.90;;
938;SDS011;456;53.584;9.968;2023-11-21T10:03:09;4.73;;;4.20;;
938;SDS011;456;53.584;9.968;2023-11-21T10:05:36;4.90;;;4.50;;
938;SDS011;456;53.584;9.968;2023-11-21T10:08:09;4.53;;;3.87;;
938;SDS011;456;53.584;9.968;2023-11-21T10:10:36;4.10;;;3.80;;
938;SDS011;456;53.584;9.968;2023-11-21T10:13:03;4.50;;;4.10;;
938;SDS011;456;53.584;9.968;2023-11-21T10:15:33;5.53;;;4.60;;
938;SDS011;456;53.584;9.968;2023-11-21T10:18:00;5.10;;;4.60;;
938;SDS011;456;53.584;9.968;2023-11-21T10:20:32;4.50;;;4.10;;
938;SDS011;456;53.584;9.968;2023-11-21T10:22:58;4.40;;;4.00;;
938;SDS011;456;53.584;9.968;2023-11-21T10:25:26;4.47;;;4.07;;
938;SDS011;456;53.584;9.968;2023-11-21T10:27:57;4.73;;;4.33;;
938;SDS011;456;53.584;9.968;2023-11-21T10:30:35;4.10;;;3.70;;
938;SDS011;456;53.584;9.968;2023-11-21T10:33:02;4.20;;;3.90;;
938;SDS011;456;53.584;9.968;2023-11-21T10:35:50;4.20;;;3.80;;
938;SDS011;456;53.584;9.968;2023-11-21T10:38:19;4.07;;;3.77;;
938;SDS011;456;53.584;9.968;2023-11-21T10:40:49;4.80;;;4.40;;
938;SDS011;456;53.584;9.968;2023-11-21T10:43:15;4.13;;;3.80;;
938;SDS011;456;53.584;9.968;2023-11-21T10:45:42;4.30;;;3.90;;
938;SDS011;456;53.584;9.968;2023-11-21T10:48:13;4.40;;;3.70;;
938;SDS011;456;53.584;9.968;2023-11-21T10:50:43;4.20;;;3.90;;
938;SDS011;456;53.584;9.968;2023-11-21T10:53:10;3.90;;;3.50;;
938;SDS011;456;53.584;9.968;2023-11-21T10:55:37;4.57;;;4.17;;
938;SDS011;456;53.584;9.968;2023-11-21T10:58:03;4.40;;;4.00;;
938;SDS011;456;53.584;9.968;2023-11-21T11:00:30;4.33;;;3.93;;
938;SDS011;456;53.584;9.968;2023-11-21T11:02:59;4.07;;;3.67;;
938;SDS011;456;53.584;9.968;2023-11-21T11:05:26;4.30;;;3.73;;
938;SDS011;456;53.584;9.968;2023-11-21T11:08:02;4.70;;;4.30;;
938;SDS011;456;53.584;9.968;2023-11-21T11:10:30;4.57;;;4.17;;
938;SDS011;456;53.584;9.968;2023-11-21T11:12:57;4.87;;;4.17;;
938;SDS011;456;53.584;9.968;2023-11-21T11:15:24;4.07;;;3.77;;
938;SDS011;456;53.584;9.968;2023-11-21T11:17:53;3.77;;;3.43;;
938;SDS011;456;53.584;9.968;2023-11-21T11:20:22;3.30;;;3.00;;
938;SDS011;456;53.584;9.968;2023-11-21T11:28:26;4.30;;;3.90;;
938;SDS011;456;53.584;9.968;2023-11-21T11:31:04;3.17;;;2.97;;
938;SDS011;456;53.584;9.968;2023-11-21T11:41:53;3.73;;;3.43;;
938;SDS011;456;53.584;9.968;2023-11-21T11:55:18;4.23;;;3.53;;
938;SDS011;456;53.584;9.968;2023-11-21T11:57:45;3.93;;;3.53;;
938;SDS011;456;53.584;9.968;2023-11-21T12:00:22;3.43;;;3.13;;
938;SDS011;456;53.584;9.968;2023-11-21T12:03:02;3.43;;;3.13;;
938;SDS011;456;53.584;9.968;2023-11-21T12:05:30;4.77;;;2.60;;
938;SDS011;456;53.584;9.968;2023-11-21T12:08:09;3.33;;;3.07;;
938;SDS011;456;53.584;9.968;2023-11-21T12:10:37;3.23;;;2.93;;
938;SDS011;456;53.584;9.968;2023-11-21T12:13:10;3.50;;;3.20;;
938;SDS011;456;53.584;9.968;2023-11-21T12:15:38;3.40;;;3.10;;
938;SDS011;456;53.584;9.968;2023-11-21T12:18:05;4.10;;;3.20;;
938;SDS011;456;53.584;9.968;2023-11-21T12:20:31;3.10;;;2.80;;
938;SDS011;456;53.584;9.968;2023-11-21T12:23:00;3.60;;;3.30;;
938;SDS011;456;53.584;9.968;2023-11-21T12:25:29;3.40;;;3.10;;
938;SDS011;456;53.584;9.968;2023-11-21T12:27:59;4.17;;;3.40;;
938;SDS011;456;53.584;9.968;2023-11-21T12:30:26;3.20;;;2.90;;
938;SDS011;456;53.584;9.968;2023-11-21T12:32:56;2.93;;;2.67;;
938;SDS011;456;53.584;9.968;2023-11-21T12:35:24;3.70;;;3.30;;
938;SDS011;456;53.584;9.968;2023-11-21T12:37:51;3.10;;;2.90;;
938;SDS011;456;53.584;9.968;2023-11-21T12:40:18;3.07;;;2.80;;
938;SDS011;456;53.584;9.968;2023-11-21T12:42:45;2.87;;;2.57;;
938;SDS011;456;53.584;9.968;2023-11-21T12:47:45;3.20;;;2.90;;
938;SDS011;456;53.584;9.968;2023-11-21T12:50:11;3.13;;;2.93;;
938;SDS011;456;53.584;9.968;2023-11-21T12:52:48;3.13;;;2.93;;
938;SDS011;456;53.584;9.968;2023-11-21T12:55:20;3.30;;;3.00;;
938;SDS011;456;53.584;9.968;2023-11-21T12:57:49;2.80;;;2.60;;
938;SDS011;456;53.584;9.968;2023-11-21T13:00:31;3.03;;;2.73;;
938;SDS011;456;53.584;9.968;2023-11-21T13:02:58;2.93;;;2.50;;
938;SDS011;456;53.584;9.968;2023-11-21T13:05:25;3.50;;;3.13;;
938;SDS011;456;53.584;9.968;2023-11-21T13:07:53;2.50;;;2.30;;
938;SDS011;456;53.584;9.968;2023-11-21T13:10:23;3.10;;;2.90;;
938;SDS011;456;53.584;9.968;2023-11-21T13:12:52;2.70;;;2.50;;
938;SDS011;456;53.584;9.968;2023-11-21T13:15:18;3.10;;;2.90;;
938;SDS011;456;53.584;9.968;2023-11-21T13:17:44;2.80;;;2.60;;
938;SDS011;456;53.584;9.968;2023-11-21T13:20:10;2.70;;;2.50;;
938;SDS011;456;53.584;9.968;2023-11-21T13:22:47;3.10;;;2.47;;
938;SDS011;456;53.584;9.968;2023-11-21T13:25:14;3.17;;;2.97;;
938;SDS011;456;53.584;9.968;2023-11-21T13:27:42;2.70;;;2.50;;
938;SDS011;456;53.584;9.968;2023-11-21T13:30:14;2.70;;;2.50;;
938;SDS011;456;53.584;9.968;2023-11-21T13:32:43;2.87;;;2.67;;
938;SDS011;456;53.584;9.968;2023-11-21T13:35:11;2.77;;;2.57;;
938;SDS011;456;53.584;9.968;2023-11-21T13:37:46;3.00;;;2.80;;
938;SDS011;456;53.584;9.968;2023-11-21T13:40:14;3.43;;;2.90;;
938;SDS011;456;53.584;9.968;2023-11-21T13:42:44;2.90;;;2.57;;
938;SDS011;456;53.584;9.968;2023-11-21T13:45:10;2.73;;;2.53;;
938;SDS011;456;53.584;9.968;2023-11-21T13:47:37;2.93;;;2.73;;
938;SDS011;456;53.584;9.968;2023-11-21T13:50:03;2.63;;;2.43;;
938;SDS011;456;53.584;9.968;2023-11-21T13:52:39;2.63;;;2.43;;
938;SDS011;456;53.584;9.968;2023-11-21T13:55:04;2.50;;;2.30;;
938;SDS011;456;53.584;9.968;2023-11-21T13:57:36;2.73;;;2.40;;
938;SDS011;456;53.584;9.968;2023-11-21T14:00:03;2.80;;;2.60;;
938;SDS011;456;53.584;9.968;2023-11-21T14:02:35;2.60;;;2.40;;
938;SDS011;456;53.584;9.968;2023-11-21T14:05:07;3.03;;;2.73;;
938;SDS011;456;53.584;9.968;2023-11-21T14:07:34;2.93;;;2.73;;
938;SDS011;456;53.584;9.968;2023-11-21T14:10:03;3.10;;;2.80;;
938;SDS011;456;53.584;9.968;2023-11-21T14:12:32;2.57;;;2.37;;
938;SDS011;456;53.584;9.968;2023-11-21T14:14:59;2.60;;;2.40;;
938;SDS011;456;53.584;9.968;2023-11-21T14:17:25;2.93;;;2.63;;
938;SDS011;456;53.584;9.968;2023-11-21T14:19:52;2.80;;;2.60;;
938;SDS011;456;53.584;9.968;2023-11-21T14:22:20;2.70;;;2.50;;
938;SDS011;456;53.584;9.968;2023-11-21T14:24:46;3.30;;;2.90;;
938;SDS011;456;53.584;9.968;2023-11-21T14:27:12;2.90;;;2.57;;
938;SDS011;456;53.584;9.968;2023-11-21T14:29:38;3.10;;;2.80;;
938;SDS011;456;53.584;9.968;2023-11-21T14:32:08;2.23;;;2.03;;
938;SDS011;456;53.584;9.968;2023-11-21T14:34:34;3.10;;;2.50;;
938;SDS011;456;53.584;9.968;2023-11-21T14:36:59;2.47;;;2.27;;
938;SDS011;456;53.584;9.968;2023-11-21T14:39:27;2.20;;;2.00;;
938;SDS011;456;53.584;9.968;2023-11-21T14:41:54;2.13;;;1.93;;
938;SDS011;456;53.584;9.968;2023-11-21T14:44:24;2.60;;;2.40;;
938;SDS011;456;53.584;9.968;2023-11-21T14:46:52;2.50;;;2.30;;
938;SDS011;456;53.584;9.968;2023-11-21T14:49:21;2.70;;;2.37;;
938;SDS011;456;53.584;9.968;2023-11-21T14:51:49;3.00;;;2.60;;
938;SDS011;456;53.584;9.968;2023-11-21T14:54:24;2.13;;;2.03;;
938;SDS011;456;53.584;9.968;2023-11-21T14:57:06;2.53;;;2.33;;
938;SDS011;456;53.584;9.968;2023-11-21T14:59:37;2.50;;;2.30;;
938;SDS011;456;53.584;9.968;2023-11-21T15:02:08;2.87;;;2.67;;
938;SDS011;456;53.584;9.968;2023-11-21T15:04:41;2.40;;;2.20;;
938;SDS011;456;53.584;9.968;2023-11-21T15:07:07;2.50;;;2.30;;
938;SDS011;456;53.584;9.968;2023-11-21T15:09:33;3.10;;;2.77;;
938;SDS011;456;53.584;9.968;2023-11-21T15:12:00;2.80;;;2.60;;
938;SDS011;456;53.584;9.968;2023-11-21T15:14:39;2.60;;;2.40;;
938;SDS011;456;53.584;9.968;2023-11-21T15:17:14;2.70;;;2.23;;
938;SDS011;456;53.584;9.968;2023-11-21T15:19:47;2.27;;;2.07;;
938;SDS011;456;53.584;9.968;2023-11-21T15:22:13;2.60;;;2.40;;
938;SDS011;456;53.584;9.968;2023-11-21T15:24:41;2.90;;;2.70;;
938;SDS011;456;53.584;9.968;2023-11-21T15:27:09;3.10;;;2.70;;
938;SDS011;456;53.584;9.968;2023-11-21T15:29:35;2.97;;;2.67;;
938;SDS011;456;53.584;9.968;2023-11-21T15:32:01;2.13;;;1.93;;
938;SDS011;456;53.584;9.968;2023-11-21T15:34:27;2.27;;;2.07;;
938;SDS011;456;53.584;9.968;2023-11-21T15:36:54;2.40;;;2.20;;
938;SDS011;456;53.584;9.968;2023-11-21T15:39:20;2.53;;;2.33;;
938;SDS011;456;53.584;9.968;2023-11-21T15:41:53;2.30;;;2.17;;
938;SDS011;456;53.584;9.968;2023-11-21T15:44:19;2.20;;;2.10;;
938;SDS011;456;53.584;9.968;2023-11-21T15:46:45;3.23;;;2.57;;
938;SDS011;456;53.584;9.968;2023-11-21T15:49:10;2.80;;;2.53;;
938;SDS011;456;53.584;9.968;2023-11-21T15:51:44;2.40;;;2.20;;
938;SDS011;456;53.584;9.968;2023-11-21T15:54:20;2.47;;;2.20;;
938;SDS011;456;53.584;9.968;2023-11-21T15:56:51;2.33;;;1.67;;
938;SDS011;456;53.584;9.968;2023-11-21T15:59:17;2.47;;;2.27;;
938;SDS011;456;53.584;9.968;2023-11-21T16:01:43;2.47;;;2.23;;
938;SDS011;456;53.584;9.968;2023-11-21T16:04:12;3.07;;;2.83;;
938;SDS011;456;53.584;9.968;2023-11-21T16:06:42;3.53;;;3.03;;
938;SDS011;456;53.584;9.968;2023-11-21T16:09:08;3.13;;;2.50;;
938;SDS011;456;53.584;9.968;2023-11-21T16:11:48;3.37;;;2.57;;
938;SDS011;456;53.584;9.968;2023-11-21T16:14:18;3.03;;;2.70;;